sensor_id;sensor_type;location;lat;lon;timestamp;pressure;altitude;pressure_sealevel;temperature;humidity
75587;BME280;64164;50.156;14.570;2022-10-12T17:46:48;99653.16;;;8.55;88.12
75587;BME280;64164;50.156;14.570;2022-10-12T17:49:16;99651.47;;;8.47;87.88
75587;BME280;64164;50.156;14.570;2022-10-12T17:51:42;99654.72;;;8.43;88.17
75587;BME280;64164;50.156;14.570;2022-10-12T17:54:11;99653.22;;;8.34;88.12
75587;BME280;64164;50.156;14.570;2022-10-12T17:56:36;99650.28;;;8.28;88.23
75587;BME280;64164;50.156;14.570;2022-10-12T17:59:03;99649.22;;;8.23;88.85
75587;BME280;64164;50.156;14.570;2022-10-12T18:01:30;99648.94;;;8.18;88.94
75587;BME280;64164;50.156;14.570;2022-10-12T18:04:00;99662.28;;;8.11;88.95
75587;BME280;64164;50.156;14.570;2022-10-12T18:06:26;99655.41;;;8.02;88.82
75587;BME280;64164;50.156;14.570;2022-10-12T18:08:51;99652.06;;;7.93;89.36
75587;BME280;64164;50.156;14.570;2022-10-12T18:11:18;99651.81;;;7.88;89.80
75587;BME280;64164;50.156;14.570;2022-10-12T18:13:45;99659.38;;;7.85;90.33
75587;BME280;64164;50.156;14.570;2022-10-12T18:16:14;99656.06;;;7.83;90.47
75587;BME280;64164;50.156;14.570;2022-10-12T18:18:39;99655.81;;;7.77;90.08
75587;BME280;64164;50.156;14.570;2022-10-12T18:21:07;99653.31;;;7.76;90.45
75587;BME280;64164;50.156;14.570;2022-10-12T18:23:32;99651.66;;;7.75;91.12
75587;BME280;64164;50.156;14.570;2022-10-12T18:26:11;99645.25;;;7.69;91.21
75587;BME280;64164;50.156;14.570;2022-10-12T18:28:38;99645.88;;;7.71;91.28
75587;BME280;64164;50.156;14.570;2022-10-12T18:31:04;99640.09;;;7.68;91.02
75587;BME280;64164;50.156;14.570;2022-10-12T18:33:30;99641.94;;;7.67;90.83
75587;BME280;64164;50.156;14.570;2022-10-12T18:36:04;99638.66;;;7.65;90.95
75587;BME280;64164;50.156;14.570;2022-10-12T18:38:30;99641.13;;;7.67;91.03
75587;BME280;64164;50.156;14.570;2022-10-12T18:41:01;99646.47;;;7.67;91.08
75587;BME280;64164;50.156;14.570;2022-10-12T18:43:27;99637.56;;;7.60;91.29
75587;BME280;64164;50.156;14.570;2022-10-12T18:45:52;99641.41;;;7.57;91.15
75587;BME280;64164;50.156;14.570;2022-10-12T18:48:17;99638.31;;;7.53;91.08
75587;BME280;64164;50.156;14.570;2022-10-12T18:50:42;99644.66;;;7.52;91.14
75587;BME280;64164;50.156;14.570;2022-10-12T18:53:08;99642.81;;;7.53;91.44
75587;BME280;64164;50.156;14.570;2022-10-12T18:55:36;99642.44;;;7.56;91.23
75587;BME280;64164;50.156;14.570;2022-10-12T18:58:02;99640.03;;;7.61;91.26
75587;BME280;64164;50.156;14.570;2022-10-12T19:00:27;99618.53;;;7.48;90.82
75587;BME280;64164;50.156;14.570;2022-10-12T19:02:53;99638.25;;;7.90;89.98
75587;BME280;64164;50.156;14.570;2022-10-12T19:05:18;99635.34;;;7.85;89.67
75587;BME280;64164;50.156;14.570;2022-10-12T19:07:43;99633.22;;;7.80;90.07
75587;BME280;64164;50.156;14.570;2022-10-12T19:10:09;99635.88;;;7.80;89.92
75587;BME280;64164;50.156;14.570;2022-10-12T19:12:35;99635.44;;;7.76;90.27
75587;BME280;64164;50.156;14.570;2022-10-12T19:15:01;99637.88;;;7.71;90.58
75587;BME280;64164;50.156;14.570;2022-10-12T19:17:26;99641.31;;;7.65;90.76
75587;BME280;64164;50.156;14.570;2022-10-12T19:19:51;99641.41;;;7.57;90.70
75587;BME280;64164;50.156;14.570;2022-10-12T19:22:17;99636.19;;;7.49;90.98
75587;BME280;64164;50.156;14.570;2022-10-12T19:24:42;99634.09;;;7.44;90.75
75587;BME280;64164;50.156;14.570;2022-10-12T19:27:09;99646.56;;;7.37;91.01
75587;BME280;64164;50.156;14.570;2022-10-12T19:29:34;99641.91;;;7.24;90.32
75587;BME280;64164;50.156;14.570;2022-10-12T19:32:00;99648.81;;;7.19;90.60
75587;BME280;64164;50.156;14.570;2022-10-12T19:34:25;99638.97;;;7.04;90.35
75587;BME280;64164;50.156;14.570;2022-10-12T19:36:50;99636.97;;;6.92;90.38
75587;BME280;64164;50.156;14.570;2022-10-12T19:39:19;99644.63;;;6.80;90.05
75587;BME280;64164;50.156;14.570;2022-10-12T19:41:45;99633.16;;;6.65;90.75
75587;BME280;64164;50.156;14.570;2022-10-12T19:44:12;99644.19;;;6.62;91.41
75587;BME280;64164;50.156;14.570;2022-10-12T19:46:39;99641.59;;;6.53;91.87
75587;BME280;64164;50.156;14.570;2022-10-12T19:49:05;99639.03;;;6.45;92.14
75587;BME280;64164;50.156;14.570;2022-10-12T19:51:30;99636.53;;;6.29;90.87
75587;BME280;64164;50.156;14.570;2022-10-12T19:53:59;99636.22;;;6.24;91.77
75587;BME280;64164;50.156;14.570;2022-10-12T19:56:25;99629.97;;;6.17;92.68
75587;BME280;64164;50.156;14.570;2022-10-12T19:58:52;99642.78;;;6.21;92.92
75587;BME280;64164;50.156;14.570;2022-10-12T20:01:22;99635.06;;;6.26;93.59
75587;BME280;64164;50.156;14.570;2022-10-12T20:03:48;99630.91;;;6.24;94.01
75587;BME280;64164;50.156;14.570;2022-10-12T20:06:15;99632.94;;;6.22;94.05
75587;BME280;64164;50.156;14.570;2022-10-12T20:08:42;99636.97;;;6.18;93.83
75587;BME280;64164;50.156;14.570;2022-10-12T20:11:09;99637.97;;;6.17;94.13
75587;BME280;64164;50.156;14.570;2022-10-12T20:13:35;99634.03;;;6.27;94.42
75587;BME280;64164;50.156;14.570;2022-10-12T20:16:01;99638.75;;;6.25;94.11
75587;BME280;64164;50.156;14.570;2022-10-12T20:18:27;99636.00;;;6.33;94.15
75587;BME280;64164;50.156;14.570;2022-10-12T20:20:53;99627.63;;;6.37;93.42
75587;BME280;64164;50.156;14.570;2022-10-12T20:23:19;99625.22;;;6.27;93.19
75587;BME280;64164;50.156;14.570;2022-10-12T20:25:48;99636.69;;;6.27;93.17
75587;BME280;64164;50.156;14.570;2022-10-12T20:28:15;99637.81;;;6.18;92.91
75587;BME280;64164;50.156;14.570;2022-10-12T20:30:40;99627.94;;;6.04;92.70
75587;BME280;64164;50.156;14.570;2022-10-12T20:33:06;99628.00;;;5.96;93.33
75587;BME280;64164;50.156;14.570;2022-10-12T20:35:32;99628.22;;;5.86;93.50
75587;BME280;64164;50.156;14.570;2022-10-12T20:37:58;99630.75;;;5.79;93.11
75587;BME280;64164;50.156;14.570;2022-10-12T20:40:23;99629.84;;;5.72;93.55
75587;BME280;64164;50.156;14.570;2022-10-12T20:42:48;99632.38;;;5.66;93.56
75587;BME280;64164;50.156;14.570;2022-10-12T20:45:14;99630.28;;;5.53;93.75
75587;BME280;64164;50.156;14.570;2022-10-12T20:47:43;99622.38;;;5.45;93.79
